createdAt,value
2019-06-20T00:01:53.703Z,70.43
2019-06-20T00:04:20.461Z,70.31
2019-06-20T00:06:47.358Z,70.30
2019-06-20T00:09:14.274Z,70.49
2019-06-20T00:11:41.102Z,69.94
2019-06-20T00:14:07.906Z,69.88
2019-06-20T00:16:34.631Z,69.58
2019-06-20T00:19:01.431Z,69.51
2019-06-20T00:21:28.546Z,69.38
2019-06-20T00:23:55.317Z,69.42
2019-06-20T00:26:22.059Z,69.52
2019-06-20T00:28:48.800Z,69.42
2019-06-20T00:31:15.546Z,69.46
2019-06-20T00:33:42.280Z,69.47
2019-06-20T00:36:09.130Z,69.26
2019-06-20T00:38:35.931Z,69.07
2019-06-20T00:41:02.867Z,68.89
2019-06-20T00:43:29.570Z,69.16
2019-06-20T00:45:56.386Z,68.86
2019-06-20T00:48:23.300Z,69.13
2019-06-20T00:50:50.030Z,69.15
2019-06-20T00:53:16.735Z,69.30
2019-06-20T00:55:43.535Z,69.28
2019-06-20T00:58:10.410Z,69.47
2019-06-20T01:00:37.319Z,69.13
2019-06-20T01:03:04.348Z,69.04
2019-06-20T01:05:31.059Z,68.94
2019-06-20T01:07:57.784Z,69.03
2019-06-20T01:10:24.502Z,69.16
2019-06-20T01:12:51.322Z,69.31
2019-06-20T01:15:18.141Z,69.43
2019-06-20T01:17:53.646Z,69.34
2019-06-20T01:20:20.797Z,70.92
2019-06-20T01:22:47.610Z,69.37
2019-06-20T01:25:16.753Z,69.36
2019-06-20T01:27:43.593Z,69.60
2019-06-20T01:30:11.731Z,69.60
2019-06-20T01:32:38.535Z,69.63
2019-06-20T01:35:08.731Z,69.72
2019-06-20T01:37:35.849Z,69.54
2019-06-20T01:40:04.769Z,69.40
2019-06-20T01:42:31.574Z,69.38
2019-06-20T01:44:58.451Z,69.11
2019-06-20T01:47:25.226Z,69.44
2019-06-20T01:49:51.961Z,69.49
2019-06-20T01:52:18.845Z,69.52
2019-06-20T01:54:45.591Z,69.56
2019-06-20T01:57:12.390Z,69.98
2019-06-20T01:59:39.166Z,69.95
2019-06-20T02:02:06.091Z,69.82
2019-06-20T02:04:32.931Z,69.84
2019-06-20T02:06:59.803Z,69.93
2019-06-20T02:09:26.810Z,69.94
2019-06-20T02:11:53.565Z,70.25
2019-06-20T02:14:20.367Z,70.27
2019-06-20T02:16:47.385Z,70.30
2019-06-20T02:19:14.399Z,70.02
2019-06-20T02:21:41.238Z,70.07
2019-06-20T02:24:08.088Z,70.09
2019-06-20T02:26:34.888Z,70.15
2019-06-20T02:29:01.953Z,69.88
2019-06-20T02:31:28.814Z,69.89
2019-06-20T02:33:55.643Z,70.03
2019-06-20T02:36:22.556Z,70.07
2019-06-20T02:38:49.376Z,69.73
2019-06-20T02:41:16.292Z,69.88
2019-06-20T02:43:43.197Z,69.75
2019-06-20T02:46:10.319Z,69.73
2019-06-20T02:48:37.124Z,69.67
2019-06-20T02:51:04.147Z,69.62
2019-06-20T02:53:30.958Z,69.56
2019-06-20T02:55:57.807Z,69.54
2019-06-20T02:58:24.653Z,69.71
2019-06-20T03:00:56.566Z,69.58
2019-06-20T03:03:25.651Z,69.62
2019-06-20T03:05:52.712Z,69.52
2019-06-20T03:08:19.613Z,69.49
2019-06-20T03:10:46.533Z,69.47
2019-06-20T03:13:13.435Z,69.50
2019-06-20T03:15:40.487Z,69.48
2019-06-20T03:18:07.217Z,69.51
2019-06-20T03:20:34.030Z,69.49
2019-06-20T03:23:00.932Z,69.52
2019-06-20T03:25:28.221Z,69.69
2019-06-20T03:27:54.936Z,69.85
2019-06-20T03:30:22.047Z,69.87
2019-06-20T03:32:49.057Z,70.02
2019-06-20T03:35:15.978Z,70.00
2019-06-20T03:37:42.700Z,70.08
2019-06-20T03:40:10.207Z,70.32
2019-06-20T03:42:37.018Z,70.23
2019-06-20T03:45:05.425Z,70.35
2019-06-20T03:47:32.339Z,70.33
2019-06-20T03:49:59.142Z,70.58
2019-06-20T03:52:25.907Z,70.47
2019-06-20T03:54:52.717Z,70.46
2019-06-20T03:57:19.431Z,70.69
2019-06-20T03:59:46.273Z,70.30
2019-06-20T04:02:13.117Z,70.29
2019-06-20T04:04:40.157Z,70.36
2019-06-20T04:07:07.087Z,70.52
2019-06-20T04:09:33.824Z,70.77
2019-06-20T04:12:00.560Z,70.90
2019-06-20T04:14:27.772Z,71.12
2019-06-20T04:16:54.507Z,70.62
2019-06-20T04:19:21.217Z,70.63
2019-06-20T04:21:47.927Z,70.62
2019-06-20T04:24:14.753Z,70.65
2019-06-20T04:26:41.462Z,70.67
2019-06-20T04:29:08.169Z,70.31
2019-06-20T04:31:34.926Z,70.59
2019-06-20T04:34:01.695Z,70.72
2019-06-20T04:36:28.638Z,70.90
2019-06-20T04:38:55.451Z,70.52
2019-06-20T04:41:22.379Z,70.76
2019-06-20T04:43:49.118Z,70.70
2019-06-20T04:46:23.625Z,70.63
2019-06-20T04:48:50.346Z,70.63
2019-06-20T04:51:17.041Z,70.76
2019-06-20T04:53:43.761Z,70.58
2019-06-20T04:56:10.582Z,70.86
2019-06-20T04:58:37.403Z,71.11
2019-06-20T05:01:04.315Z,71.02
2019-06-20T05:03:31.133Z,70.85
2019-06-20T05:05:57.941Z,71.13
2019-06-20T05:08:24.762Z,71.50
2019-06-20T05:10:51.602Z,71.51
2019-06-20T05:13:18.469Z,71.70
2019-06-20T05:15:52.421Z,71.65
2019-06-20T05:18:14.206Z,71.58
2019-06-20T05:20:41.040Z,71.68
2019-06-20T05:23:07.747Z,71.54
2019-06-20T05:25:34.650Z,71.38
2019-06-20T05:28:01.666Z,71.48
2019-06-20T05:30:28.837Z,70.77
2019-06-20T05:32:55.643Z,70.57
2019-06-20T05:35:22.343Z,69.93
2019-06-20T05:37:49.066Z,69.35
2019-06-20T05:40:16.003Z,69.22
2019-06-20T05:42:42.819Z,68.98
2019-06-20T05:45:10.383Z,68.72
2019-06-20T05:47:37.201Z,68.64
2019-06-20T05:50:07.013Z,68.35
2019-06-20T05:52:33.751Z,68.50
2019-06-20T05:55:00.458Z,68.56
2019-06-20T05:57:27.270Z,68.77
2019-06-20T05:59:54.175Z,68.83
2019-06-20T06:02:20.957Z,68.85
2019-06-20T06:04:47.874Z,68.36
2019-06-20T06:07:14.579Z,68.73
2019-06-20T06:09:41.430Z,68.44
2019-06-20T06:12:08.414Z,68.36
2019-06-20T06:14:35.260Z,67.87
2019-06-20T06:17:02.161Z,67.92
2019-06-20T06:19:28.941Z,68.10
2019-06-20T06:21:55.673Z,68.17
2019-06-20T06:24:22.490Z,67.91
2019-06-20T06:26:49.190Z,67.83
2019-06-20T06:29:16.020Z,67.96
2019-06-20T06:31:42.824Z,68.09
2019-06-20T06:34:09.883Z,68.18
2019-06-20T06:36:36.579Z,67.72
2019-06-20T06:39:07.699Z,67.37
2019-06-20T06:41:34.530Z,67.51
2019-06-20T06:44:01.476Z,67.63
2019-06-20T06:46:42.844Z,67.82
2019-06-20T06:48:56.918Z,68.10
2019-06-20T06:51:23.616Z,68.52
2019-06-20T06:53:50.450Z,68.46
2019-06-20T06:56:17.287Z,68.16
2019-06-20T06:58:43.994Z,67.80
2019-06-20T07:01:10.904Z,67.76
2019-06-20T07:03:37.639Z,67.56
2019-06-20T07:06:04.530Z,67.56
2019-06-20T07:08:31.426Z,67.48
2019-06-20T07:10:58.415Z,67.22
2019-06-20T07:13:25.158Z,67.21
2019-06-20T07:15:51.872Z,66.84
2019-06-20T07:18:18.897Z,66.53
2019-06-20T07:20:45.735Z,66.62
2019-06-20T07:23:12.586Z,66.25
2019-06-20T07:25:39.317Z,66.53
2019-06-20T07:28:06.025Z,65.34
2019-06-20T07:30:32.734Z,64.98
2019-06-20T07:32:59.573Z,65.31
2019-06-20T07:35:26.331Z,65.54
2019-06-20T07:37:53.081Z,64.00
2019-06-20T07:40:20.422Z,62.50
2019-06-20T07:42:47.426Z,62.40
2019-06-20T07:45:15.099Z,60.96
2019-06-20T07:47:41.999Z,60.58
2019-06-20T07:50:09.873Z,60.99
2019-06-20T07:52:36.772Z,61.59
2019-06-20T07:55:08.270Z,61.71
2019-06-20T07:57:34.986Z,62.33
2019-06-20T08:00:09.760Z,62.46
2019-06-20T08:02:36.774Z,62.65
2019-06-20T08:05:06.019Z,62.45
2019-06-20T08:07:32.846Z,62.36
2019-06-20T08:09:59.724Z,62.03
2019-06-20T08:12:26.505Z,62.24
2019-06-20T08:14:53.269Z,62.32
2019-06-20T08:17:34.325Z,62.02
2019-06-20T08:19:48.619Z,62.14
2019-06-20T08:22:15.395Z,61.87
2019-06-20T08:24:42.340Z,62.22
2019-06-20T08:27:09.141Z,62.04
2019-06-20T08:29:35.969Z,61.86
2019-06-20T08:32:02.928Z,61.38
2019-06-20T08:34:29.966Z,61.48
2019-06-20T08:36:57.805Z,60.94
2019-06-20T08:39:29.187Z,60.60
2019-06-20T08:41:55.438Z,60.71
2019-06-20T08:44:22.486Z,60.39
2019-06-20T08:46:49.335Z,60.17
2019-06-20T08:49:16.193Z,58.55
2019-06-20T08:51:42.908Z,59.56
2019-06-20T08:54:09.716Z,59.42
2019-06-20T08:56:36.959Z,60.23
2019-06-20T08:59:04.890Z,60.19
2019-06-20T09:01:31.932Z,60.59
2019-06-20T09:03:58.739Z,59.82
2019-06-20T09:06:26.090Z,59.67
2019-06-20T09:08:53.855Z,60.38
2019-06-20T09:11:21.870Z,59.83
2019-06-20T09:13:48.680Z,59.72
2019-06-20T09:16:24.351Z,59.32
2019-06-20T09:18:44.139Z,59.25
2019-06-20T09:21:11.150Z,59.11
2019-06-20T09:23:37.882Z,58.48
2019-06-20T09:26:04.724Z,56.94
2019-06-20T09:28:31.534Z,57.26
2019-06-20T09:30:59.225Z,57.30
2019-06-20T09:33:26.344Z,57.17
2019-06-20T09:35:53.991Z,57.30
2019-06-20T09:38:23.455Z,57.97
2019-06-20T09:40:51.915Z,58.02
2019-06-20T09:43:27.707Z,58.32
2019-06-20T09:45:48.090Z,58.13
2019-06-20T09:48:14.919Z,57.60
2019-06-20T09:50:41.787Z,57.83
2019-06-20T09:53:08.479Z,57.03
2019-06-20T09:55:35.414Z,56.61
2019-06-20T09:58:02.426Z,56.49
2019-06-20T10:00:29.850Z,56.45
2019-06-20T10:02:57.821Z,56.18
2019-06-20T10:05:25.306Z,56.24
2019-06-20T10:07:52.345Z,55.43
2019-06-20T10:10:27.819Z,55.29
2019-06-20T10:12:55.869Z,55.55
2019-06-20T10:15:27.597Z,55.60
2019-06-20T10:17:54.709Z,55.43
2019-06-20T10:20:22.543Z,55.00
2019-06-20T10:22:49.384Z,55.10
2019-06-20T10:25:16.498Z,54.87
2019-06-20T10:27:44.848Z,54.90
2019-06-20T10:30:14.537Z,54.36
2019-06-20T10:32:41.720Z,54.42
2019-06-20T10:35:09.995Z,54.23
2019-06-20T10:37:36.919Z,54.39
2019-06-20T10:40:07.630Z,54.34
2019-06-20T10:42:34.481Z,54.65
2019-06-20T10:45:01.976Z,54.65
2019-06-20T10:47:35.000Z,54.59
2019-06-20T10:49:57.883Z,54.73
2019-06-20T10:52:24.757Z,54.65
2019-06-20T10:54:51.703Z,55.13
2019-06-20T10:57:18.556Z,54.59
2019-06-20T10:59:46.519Z,54.30
2019-06-20T11:02:13.543Z,54.69
2019-06-20T11:04:41.105Z,54.70
2019-06-20T11:07:09.266Z,54.69
2019-06-20T11:09:36.194Z,54.63
2019-06-20T11:12:03.223Z,54.44
2019-06-20T11:14:29.931Z,54.42
2019-06-20T11:16:57.555Z,54.68
2019-06-20T11:19:24.268Z,55.25
2019-06-20T11:21:50.992Z,54.51
2019-06-20T11:24:17.910Z,54.91
2019-06-20T11:26:46.009Z,54.54
2019-06-20T11:29:12.869Z,55.73
2019-06-20T11:31:44.232Z,55.66
2019-06-20T11:34:08.337Z,56.31
2019-06-20T11:36:36.989Z,57.09
2019-06-20T11:39:06.299Z,57.72
2019-06-20T11:41:33.132Z,57.51
2019-06-20T11:43:59.840Z,57.96
2019-06-20T11:46:26.707Z,57.41
2019-06-20T11:48:53.473Z,57.37
2019-06-20T11:51:20.505Z,57.61
2019-06-20T11:53:47.472Z,57.32
2019-06-20T11:56:14.199Z,57.20
2019-06-20T11:58:40.919Z,57.58
2019-06-20T12:01:07.659Z,57.65
2019-06-20T12:03:34.380Z,57.40
2019-06-20T12:06:01.088Z,57.85
2019-06-20T12:08:27.830Z,58.35
2019-06-20T12:10:54.767Z,58.45
2019-06-20T12:13:21.587Z,59.12
2019-06-20T12:15:49.000Z,59.96
2019-06-20T12:18:16.014Z,63.06
2019-06-20T12:20:42.951Z,61.82
2019-06-20T12:23:10.029Z,62.65
2019-06-20T12:25:39.092Z,62.97
2019-06-20T12:28:06.006Z,63.89
2019-06-20T12:30:32.882Z,64.46
2019-06-20T12:32:59.714Z,64.42
2019-06-20T12:35:26.678Z,63.49
2019-06-20T12:37:53.497Z,63.21
2019-06-20T12:40:20.704Z,63.94
2019-06-20T12:42:47.454Z,64.25
2019-06-20T12:45:14.867Z,64.69
2019-06-20T12:47:42.015Z,64.35
2019-06-20T12:50:09.258Z,64.30
2019-06-20T12:52:37.624Z,63.51
2019-06-20T12:55:05.129Z,63.24
2019-06-20T12:57:32.042Z,63.39
2019-06-20T12:59:58.865Z,63.50
2019-06-20T13:02:25.856Z,63.86
2019-06-20T13:04:52.793Z,64.26
2019-06-20T13:07:19.532Z,63.83
2019-06-20T13:09:46.407Z,64.49
2019-06-20T13:12:13.350Z,64.31
2019-06-20T13:14:40.887Z,64.35
2019-06-20T13:17:07.813Z,64.21
2019-06-20T13:19:34.518Z,64.35
2019-06-20T13:22:01.250Z,64.73
2019-06-20T13:24:27.957Z,64.55
2019-06-20T13:26:54.733Z,64.97
2019-06-20T13:29:21.485Z,65.61
2019-06-20T13:32:01.679Z,65.34
2019-06-20T13:34:16.834Z,66.04
2019-06-20T13:36:44.747Z,65.05
2019-06-20T13:39:11.764Z,65.21
2019-06-20T13:41:41.214Z,65.31
2019-06-20T13:44:08.173Z,65.49
2019-06-20T13:46:35.117Z,64.79
2019-06-20T13:49:02.036Z,64.75
2019-06-20T13:51:28.929Z,65.30
2019-06-20T13:53:55.888Z,64.57
2019-06-20T13:56:23.037Z,64.42
2019-06-20T13:58:51.235Z,64.49
2019-06-20T14:01:18.309Z,64.34
2019-06-20T14:03:45.694Z,64.31
2019-06-20T14:06:13.914Z,64.30
2019-06-20T14:08:42.366Z,64.03
2019-06-20T14:11:09.370Z,63.91
2019-06-20T14:13:36.323Z,63.74
2019-06-20T14:16:03.372Z,63.41
2019-06-20T14:18:30.225Z,63.15
2019-06-20T14:20:57.046Z,63.25
2019-06-20T14:23:23.887Z,63.20
2019-06-20T14:25:51.731Z,63.26
2019-06-20T14:28:18.874Z,63.43
2019-06-20T14:30:46.548Z,62.80
2019-06-20T14:33:13.888Z,62.48
2019-06-20T14:35:43.497Z,62.64
2019-06-20T14:38:09.507Z,62.36
2019-06-20T14:40:36.488Z,62.50
2019-06-20T14:43:03.325Z,63.31
2019-06-20T14:45:30.171Z,63.01
2019-06-20T14:47:57.058Z,62.69
2019-06-20T14:50:23.983Z,62.45
2019-06-20T14:52:52.193Z,62.47
2019-06-20T14:55:19.880Z,62.64
2019-06-20T14:57:48.418Z,62.51
2019-06-20T15:00:16.973Z,62.70
2019-06-20T15:02:45.762Z,63.08
2019-06-20T15:05:17.939Z,62.58
2019-06-20T15:07:46.726Z,62.56
2019-06-20T15:10:14.505Z,62.86
2019-06-20T15:12:41.548Z,62.91
2019-06-20T15:15:08.956Z,63.18
2019-06-20T15:17:35.862Z,62.88
2019-06-20T15:20:06.461Z,62.96
2019-06-20T15:22:33.284Z,63.44
2019-06-20T15:25:00.098Z,62.84
2019-06-20T15:27:26.852Z,62.92
2019-06-20T15:29:54.411Z,63.43
2019-06-20T15:32:22.242Z,63.38
2019-06-20T15:34:49.443Z,62.85
2019-06-20T15:37:16.304Z,62.47
2019-06-20T15:39:43.042Z,62.83
2019-06-20T15:42:09.752Z,62.91
2019-06-20T15:44:36.483Z,62.80
2019-06-20T15:47:03.405Z,62.90
2019-06-20T15:49:30.215Z,63.29
2019-06-20T15:51:59.166Z,63.39
2019-06-20T15:54:26.309Z,63.64
2019-06-20T15:56:53.247Z,63.39
2019-06-20T15:59:20.328Z,63.71
2019-06-20T16:01:47.017Z,63.90
2019-06-20T16:04:13.779Z,63.53
2019-06-20T16:06:40.575Z,63.64
2019-06-20T16:09:09.076Z,63.66
2019-06-20T16:11:36.553Z,63.74
2019-06-20T16:14:03.421Z,63.80
2019-06-20T16:16:30.106Z,63.64
2019-06-20T16:18:56.995Z,63.67
2019-06-20T16:21:23.825Z,63.26
2019-06-20T16:23:50.719Z,63.27
2019-06-20T16:26:17.369Z,63.25
2019-06-20T16:28:44.162Z,63.18
2019-06-20T16:31:25.906Z,63.08
2019-06-20T16:33:39.648Z,63.26
2019-06-20T16:36:06.422Z,63.17
2019-06-20T16:38:33.311Z,62.86
2019-06-20T16:40:59.999Z,62.77
2019-06-20T16:43:26.801Z,62.95
2019-06-20T16:45:53.451Z,62.61
2019-06-20T16:48:20.261Z,62.84
2019-06-20T16:50:47.073Z,63.01
2019-06-20T16:53:13.819Z,63.18
2019-06-20T16:55:40.812Z,63.44
2019-06-20T16:58:07.940Z,63.46
2019-06-20T17:00:34.957Z,63.60
2019-06-20T17:03:01.833Z,63.85
2019-06-20T17:05:28.705Z,63.64
2019-06-20T17:07:55.467Z,63.76
2019-06-20T17:10:24.230Z,63.99
2019-06-20T17:12:51.122Z,64.13
2019-06-20T17:15:18.918Z,64.13
2019-06-20T17:17:45.812Z,64.44
2019-06-20T17:20:13.571Z,65.03
2019-06-20T17:22:42.278Z,64.98
2019-06-20T17:25:09.660Z,64.98
2019-06-20T17:27:36.427Z,64.84
2019-06-20T17:30:11.811Z,64.90
2019-06-20T17:32:38.942Z,64.89
2019-06-20T17:35:07.015Z,64.69
2019-06-20T17:37:34.087Z,64.68
2019-06-20T17:40:00.791Z,64.71
2019-06-20T17:42:27.700Z,64.37
2019-06-20T17:44:54.365Z,64.22
2019-06-20T17:47:21.289Z,64.20
2019-06-20T17:49:48.140Z,63.84
2019-06-20T17:52:15.019Z,63.51
2019-06-20T17:54:41.783Z,63.64
2019-06-20T17:57:08.555Z,63.86
2019-06-20T17:59:35.241Z,63.92
2019-06-20T18:02:02.063Z,64.39
2019-06-20T18:04:28.752Z,64.69
2019-06-20T18:06:55.449Z,64.95
2019-06-20T18:09:22.303Z,65.07
2019-06-20T18:11:49.085Z,65.50
2019-06-20T18:14:15.773Z,65.53
2019-06-20T18:16:42.633Z,65.77
2019-06-20T18:19:09.416Z,66.00
2019-06-20T18:21:36.343Z,65.89
2019-06-20T18:24:03.302Z,65.70
2019-06-20T18:26:30.010Z,65.92
2019-06-20T18:28:56.709Z,66.03
2019-06-20T18:31:23.423Z,66.17
2019-06-20T18:33:50.429Z,66.09
2019-06-20T18:36:17.326Z,66.51
2019-06-20T18:38:44.006Z,66.25
2019-06-20T18:41:10.673Z,66.19
2019-06-20T18:43:37.514Z,66.13
2019-06-20T18:46:04.306Z,65.97
2019-06-20T18:48:32.094Z,65.92
2019-06-20T18:50:59.056Z,65.79
2019-06-20T18:53:45.097Z,65.56
2019-06-20T18:56:11.868Z,65.60
2019-06-20T18:58:38.549Z,65.55
2019-06-20T19:01:05.399Z,65.49
2019-06-20T19:03:32.206Z,65.67
2019-06-20T19:05:58.999Z,65.58
2019-06-20T19:08:25.736Z,65.60
2019-06-20T19:10:52.536Z,65.70
2019-06-20T19:13:19.348Z,65.66
2019-06-20T19:15:46.146Z,65.66
2019-06-20T19:18:12.912Z,65.74
2019-06-20T19:20:39.887Z,65.69
2019-06-20T19:23:06.760Z,65.64
2019-06-20T19:25:33.662Z,65.58
2019-06-20T19:28:00.748Z,65.64
2019-06-20T19:30:38.842Z,66.10
2019-06-20T19:33:05.858Z,65.90
2019-06-20T19:35:32.648Z,65.94
2019-06-20T19:37:59.380Z,65.92
2019-06-20T19:40:31.925Z,65.90
2019-06-20T19:42:58.769Z,65.91
2019-06-20T19:45:25.677Z,66.15
2019-06-20T19:47:52.561Z,66.15
2019-06-20T19:50:19.956Z,66.17
2019-06-20T19:52:46.744Z,66.10
2019-06-20T19:55:15.150Z,66.33
2019-06-20T19:57:42.123Z,66.50
2019-06-20T20:00:10.937Z,66.44
2019-06-20T20:02:37.979Z,66.26
2019-06-20T20:05:18.534Z,66.53
2019-06-20T20:07:35.882Z,66.49
2019-06-20T20:10:05.660Z,66.60
2019-06-20T20:12:32.515Z,66.74
2019-06-20T20:14:59.504Z,66.69
2019-06-20T20:17:26.333Z,66.55
2019-06-20T20:19:53.097Z,66.94
2019-06-20T20:22:19.797Z,66.90
2019-06-20T20:24:46.491Z,66.91
2019-06-20T20:27:13.409Z,67.06
2019-06-20T20:29:40.225Z,66.81
2019-06-20T20:32:07.093Z,66.74
2019-06-20T20:34:33.818Z,66.68
2019-06-20T20:37:00.516Z,66.76
2019-06-20T20:39:27.184Z,66.62
2019-06-20T20:41:53.914Z,66.96
2019-06-20T20:44:20.566Z,67.06
2019-06-20T20:46:47.363Z,66.82
2019-06-20T20:49:14.089Z,67.06
2019-06-20T20:51:40.755Z,67.14
2019-06-20T20:54:07.534Z,67.19
2019-06-20T20:56:34.228Z,67.18
2019-06-20T20:59:01.196Z,67.30
2019-06-20T21:01:29.476Z,67.51
2019-06-20T21:03:59.084Z,67.50
2019-06-20T21:06:27.505Z,67.55
2019-06-20T21:08:54.250Z,67.53
2019-06-20T21:11:21.047Z,67.75
2019-06-20T21:13:47.722Z,67.63
2019-06-20T21:16:14.528Z,67.54
2019-06-20T21:18:41.300Z,67.84
2019-06-20T21:21:08.192Z,67.94
2019-06-20T21:23:35.034Z,68.21
2019-06-20T21:26:01.856Z,68.32
2019-06-20T21:28:28.617Z,68.35
2019-06-20T21:30:55.407Z,68.49
2019-06-20T21:33:22.152Z,68.77
2019-06-20T21:35:48.924Z,69.00
2019-06-20T21:38:15.699Z,69.02
2019-06-20T21:40:42.863Z,69.28
2019-06-20T21:43:09.737Z,69.93
2019-06-20T21:45:36.439Z,70.37
2019-06-20T21:48:03.729Z,70.37
2019-06-20T21:50:30.421Z,71.07
2019-06-20T21:52:57.092Z,71.19
2019-06-20T21:55:23.884Z,71.90
2019-06-20T21:57:50.655Z,71.26
2019-06-20T22:00:30.020Z,71.05
2019-06-20T22:02:56.715Z,71.14
2019-06-20T22:05:23.436Z,71.57
2019-06-20T22:07:50.230Z,71.65
2019-06-20T22:10:17.619Z,71.51
2019-06-20T22:12:44.399Z,71.30
2019-06-20T22:15:11.588Z,71.07
2019-06-20T22:17:38.373Z,70.97
2019-06-20T22:20:06.346Z,71.14
2019-06-20T22:22:33.241Z,71.25
2019-06-20T22:24:59.915Z,71.69
2019-06-20T22:27:26.681Z,71.58
2019-06-20T22:29:53.347Z,71.60
2019-06-20T22:32:20.298Z,71.44
2019-06-20T22:34:46.986Z,71.64
2019-06-20T22:37:13.863Z,71.29
2019-06-20T22:39:40.514Z,71.17
2019-06-20T22:42:07.366Z,71.73
2019-06-20T22:44:34.157Z,71.76
2019-06-20T22:47:00.955Z,72.03
2019-06-20T22:49:27.645Z,72.35
2019-06-20T22:51:54.306Z,72.43
2019-06-20T22:54:21.088Z,72.54
2019-06-20T22:56:47.970Z,72.56
2019-06-20T22:59:14.721Z,72.80
2019-06-20T23:01:43.426Z,72.80
2019-06-20T23:04:10.263Z,72.81
2019-06-20T23:06:37.043Z,73.20
2019-06-20T23:09:06.005Z,72.59
2019-06-20T23:11:32.700Z,72.44
2019-06-20T23:13:59.578Z,72.63
2019-06-20T23:16:26.236Z,72.98
2019-06-20T23:18:52.919Z,73.03
2019-06-20T23:21:19.586Z,72.89
2019-06-20T23:23:46.303Z,73.19
2019-06-20T23:26:13.667Z,73.15
2019-06-20T23:28:40.567Z,73.36
2019-06-20T23:31:07.658Z,73.83
2019-06-20T23:33:34.335Z,73.75
2019-06-20T23:36:01.106Z,73.65
2019-06-20T23:38:27.883Z,73.61
2019-06-20T23:40:54.560Z,73.67
2019-06-20T23:43:21.254Z,74.00
2019-06-20T23:45:47.952Z,74.09
2019-06-20T23:48:14.918Z,74.09
2019-06-20T23:50:41.669Z,73.98
2019-06-20T23:53:13.414Z,74.49
2019-06-20T23:55:40.076Z,74.73
2019-06-20T23:58:06.760Z,74.85
